Time;durP1;ratioP1;P1;durP2;ratioP2;P2;SDS_P1;SDS_P2;PMS_P1;PMS_P2;Temp;Humidity;BMP_temperature;BMP_pressure;BME280_temperature;BME280_humidity;BME280_pressure;Samples;Min_cycle;Max_cycle;Signal;HPM_P1;HPM_P2
2024/01/18 00:01:36;;;;;;;24.70;21.43;;;-0.40;99.90;;;;;;5012400;28;20516;-64
2024/01/18 00:04:02;;;;;;;25.50;21.90;;;-0.40;99.90;;;;;;5017085;28;20876;-65
2024/01/18 00:06:31;;;;;;;24.33;21.38;;;-0.40;99.90;;;;;;5010600;28;20447;-67
2024/01/18 00:08:58;;;;;;;26.52;22.83;;;-0.40;99.90;;;;;;4997110;28;20436;-65
2024/01/18 00:11:25;;;;;;;26.27;22.48;;;-0.40;99.90;;;;;;5012156;28;20571;-67
2024/01/18 00:13:52;;;;;;;28.48;23.20;;;-0.40;99.90;;;;;;5008046;28;20918;-66
2024/01/18 00:16:20;;;;;;;24.50;21.73;;;-0.30;99.90;;;;;;5009297;28;20428;-64
2024/01/18 00:18:47;;;;;;;24.30;21.70;;;-0.40;99.90;;;;;;5007574;28;20445;-65
2024/01/18 00:21:14;;;;;;;23.80;21.30;;;-0.30;99.90;;;;;;5005725;28;21031;-65
2024/01/18 00:23:40;;;;;;;25.38;22.67;;;-0.30;99.90;;;;;;5009211;28;20432;-64
2024/01/18 00:26:08;;;;;;;24.52;22.00;;;-0.30;99.90;;;;;;4994994;28;20513;-64
2024/01/18 00:28:35;;;;;;;24.20;20.95;;;-0.30;99.90;;;;;;5004349;28;20420;-64
2024/01/18 00:31:02;;;;;;;22.73;20.33;;;-0.30;99.90;;;;;;4999229;28;20476;-64
2024/01/18 00:33:30;;;;;;;22.97;20.10;;;-0.40;99.90;;;;;;5003045;28;20440;-64
2024/01/18 00:35:56;;;;;;;21.70;19.50;;;-0.40;99.90;;;;;;5003474;28;20432;-65
2024/01/18 00:38:23;;;;;;;23.77;20.27;;;-0.40;99.90;;;;;;5000958;28;20892;-65
2024/01/18 00:40:50;;;;;;;23.73;21.25;;;-0.50;99.90;;;;;;5009048;28;20832;-65
2024/01/18 00:43:17;;;;;;;23.13;20.63;;;-0.50;99.90;;;;;;4996712;28;20441;-65
2024/01/18 00:45:43;;;;;;;22.25;19.92;;;-0.50;99.90;;;;;;4994410;28;20461;-64
2024/01/18 00:48:10;;;;;;;21.80;19.60;;;-0.50;99.90;;;;;;4997781;28;20447;-65
2024/01/18 00:50:39;;;;;;;22.42;18.92;;;-0.40;99.90;;;;;;5001375;28;20438;-65
2024/01/18 00:53:05;;;;;;;21.10;19.00;;;-0.40;99.90;;;;;;4997497;28;20434;-65
2024/01/18 00:55:33;;;;;;;20.95;18.85;;;-0.50;99.90;;;;;;5001331;28;20440;-65
2024/01/18 00:58:00;;;;;;;22.77;18.60;;;-0.50;99.90;;;;;;5007819;28;20435;-65
2024/01/18 01:00:27;;;;;;;22.08;19.77;;;-0.50;99.90;;;;;;5005834;28;20461;-65
2024/01/18 01:02:54;;;;;;;20.88;18.67;;;-0.50;99.90;;;;;;5004513;28;20441;-65
2024/01/18 01:05:21;;;;;;;21.92;19.48;;;-0.60;99.90;;;;;;5003905;28;20757;-65
2024/01/18 01:07:49;;;;;;;21.23;19.02;;;-0.50;99.90;;;;;;4997113;28;20464;-64
2024/01/18 01:10:16;;;;;;;20.80;18.75;;;-0.50;99.90;;;;;;4999677;28;20519;-64
2024/01/18 01:12:43;;;;;;;21.80;19.52;;;-0.60;99.90;;;;;;4997605;28;20506;-65
2024/01/18 01:15:10;;;;;;;23.88;20.30;;;-0.60;99.90;;;;;;5006846;28;20421;-65
2024/01/18 01:17:37;;;;;;;22.05;19.50;;;-0.50;99.90;;;;;;5009187;28;20504;-65
2024/01/18 01:20:04;;;;;;;22.77;20.30;;;-0.50;99.90;;;;;;5006235;28;20432;-64
2024/01/18 01:22:31;;;;;;;21.83;19.52;;;-0.50;99.90;;;;;;5008947;28;21788;-64
2024/01/18 01:24:59;;;;;;;22.48;20.08;;;-0.50;99.90;;;;;;5007939;28;20958;-64
2024/01/18 01:27:26;;;;;;;22.13;19.73;;;-0.50;99.90;;;;;;5007642;28;20699;-65
2024/01/18 01:29:52;;;;;;;22.10;19.70;;;-0.50;99.90;;;;;;5005620;28;20599;-64
2024/01/18 01:32:19;;;;;;;22.75;20.45;;;-0.50;99.90;;;;;;5008738;28;20495;-65
2024/01/18 01:34:46;;;;;;;23.58;20.25;;;-0.50;99.90;;;;;;5005159;28;20463;-64
2024/01/18 01:37:13;;;;;;;22.50;20.08;;;-0.50;99.90;;;;;;5007896;28;20515;-64
2024/01/18 01:39:40;;;;;;;25.02;20.95;;;-0.50;99.90;;;;;;5004727;28;20436;-64
2024/01/18 01:42:09;;;;;;;22.75;20.35;;;-0.50;99.90;;;;;;5006914;28;20420;-65
2024/01/18 01:44:35;;;;;;;22.70;20.30;;;-0.50;99.90;;;;;;5013862;28;20412;-69
2024/01/18 01:47:02;;;;;;;22.80;20.20;;;-0.50;99.90;;;;;;5000476;28;20954;-64
2024/01/18 01:49:29;;;;;;;22.25;19.95;;;-0.50;99.90;;;;;;5005937;28;20436;-65
2024/01/18 01:51:56;;;;;;;24.75;22.25;;;-0.50;99.90;;;;;;5004700;28;20455;-64
2024/01/18 01:54:28;;;;;;;22.75;20.45;;;-0.50;99.90;;;;;;5034026;23;20436;-74
2024/01/18 01:56:56;;;;;;;22.63;19.80;;;-0.50;99.90;;;;;;5043248;28;20433;-74
2024/01/18 01:59:25;;;;;;;25.48;21.70;;;-0.60;99.90;;;;;;5045692;28;20444;-75
2024/01/18 02:01:52;;;;;;;24.35;21.75;;;-0.50;99.90;;;;;;5040498;28;20429;-74
2024/01/18 02:04:19;;;;;;;24.50;21.83;;;-0.50;99.90;;;;;;5047974;28;21036;-73
2024/01/18 02:06:50;;;;;;;22.40;20.00;;;-0.50;99.90;;;;;;5028191;28;20959;-74
2024/01/18 02:09:18;;;;;;;23.90;21.40;;;-0.50;99.90;;;;;;5022210;28;20421;-73
2024/01/18 02:11:44;;;;;;;23.40;21.00;;;-0.50;99.90;;;;;;5027007;28;21120;-72
2024/01/18 02:14:12;;;;;;;23.02;20.73;;;-0.50;99.90;;;;;;5028171;28;20421;-73
2024/01/18 02:16:40;;;;;;;21.70;19.50;;;-0.50;99.90;;;;;;5028352;28;20423;-75
2024/01/18 02:19:07;;;;;;;21.75;19.45;;;-0.50;99.90;;;;;;5033073;28;20415;-73
2024/01/18 02:21:33;;;;;;;22.27;19.98;;;-0.60;99.90;;;;;;5027026;28;20417;-74
2024/01/18 02:24:08;;;;;;;22.70;20.25;;;-0.60;99.90;;;;;;5031762;28;20898;-73
2024/01/18 02:26:36;;;;;;;23.80;20.17;;;-0.60;99.90;;;;;;5028026;28;20431;-73
2024/01/18 02:29:03;;;;;;;23.25;20.85;;;-0.60;99.90;;;;;;5025425;28;20438;-73
2024/01/18 02:31:30;;;;;;;23.50;21.08;;;-0.60;99.90;;;;;;5026569;28;20461;-73
2024/01/18 02:33:56;;;;;;;23.90;21.40;;;-0.60;99.90;;;;;;5027348;28;20434;-73
2024/01/18 02:36:23;;;;;;;22.95;20.55;;;-0.60;99.90;;;;;;5027480;28;20415;-73
2024/01/18 02:38:51;;;;;;;23.10;20.73;;;-0.60;99.90;;;;;;5025542;28;20431;-73
2024/01/18 02:41:18;;;;;;;23.67;21.17;;;-0.60;99.90;;;;;;5026729;28;20496;-73
2024/01/18 02:43:47;;;;;;;24.42;21.75;;;-0.60;99.90;;;;;;5026822;28;20411;-73
2024/01/18 02:46:17;;;;;;;24.50;22.00;;;-0.60;99.90;;;;;;5026289;28;20949;-75
2024/01/18 02:48:44;;;;;;;25.38;22.45;;;-0.50;99.90;;;;;;5026983;28;20468;-74
2024/01/18 02:51:10;;;;;;;23.70;21.20;;;-0.50;99.90;;;;;;5025504;28;20443;-73
2024/01/18 02:53:37;;;;;;;24.20;21.70;;;-0.50;99.90;;;;;;5026495;28;20437;-73
2024/01/18 02:56:05;;;;;;;23.00;20.55;;;-0.50;99.90;;;;;;5026463;28;20442;-75
2024/01/18 02:58:31;;;;;;;22.73;20.33;;;-0.50;99.90;;;;;;5026766;28;20419;-75
2024/01/18 03:01:00;;;;;;;22.67;20.38;;;-0.60;99.90;;;;;;5024806;28;20976;-73
2024/01/18 03:03:26;;;;;;;23.90;21.40;;;-0.60;99.90;;;;;;5024477;28;20967;-73
2024/01/18 03:05:53;;;;;;;23.65;20.70;;;-0.60;99.90;;;;;;5027370;28;20430;-74
2024/01/18 03:08:20;;;;;;;22.42;20.23;;;-0.60;99.90;;;;;;5027011;28;20415;-74
2024/01/18 03:10:47;;;;;;;23.25;20.75;;;-0.60;99.90;;;;;;5025993;28;20419;-73
2024/01/18 03:13:13;;;;;;;23.90;21.30;;;-0.70;99.90;;;;;;5026920;28;20431;-73
2024/01/18 03:15:40;;;;;;;24.30;21.10;;;-0.70;99.90;;;;;;5026699;28;21193;-73
2024/01/18 03:18:08;;;;;;;24.92;22.48;;;-0.60;99.90;;;;;;5026926;28;20426;-73
2024/01/18 03:20:35;;;;;;;25.20;22.50;;;-0.60;99.90;;;;;;5026508;28;20411;-73
2024/01/18 03:23:02;;;;;;;24.65;22.10;;;-0.60;99.90;;;;;;5027119;28;20407;-75
2024/01/18 03:25:28;;;;;;;23.60;21.10;;;-0.60;99.90;;;;;;5023511;28;20798;-74
2024/01/18 03:27:55;;;;;;;24.70;22.30;;;-0.60;99.90;;;;;;5027067;28;20692;-74
2024/01/18 03:30:22;;;;;;;24.10;21.80;;;-0.70;99.90;;;;;;5025934;28;20419;-74
2024/01/18 03:32:49;;;;;;;24.35;21.67;;;-0.70;99.90;;;;;;5026938;28;20944;-74
2024/01/18 03:35:17;;;;;;;24.20;21.80;;;-0.70;99.90;;;;;;5028765;28;20423;-74
2024/01/18 03:37:43;;;;;;;24.60;22.10;;;-0.70;99.90;;;;;;5030734;28;20423;-74
2024/01/18 03:40:11;;;;;;;24.95;22.40;;;-0.70;99.90;;;;;;5028871;28;20421;-74
2024/01/18 03:42:41;;;;;;;23.67;21.50;;;-0.70;99.90;;;;;;5026760;28;20823;-73
2024/01/18 03:45:08;;;;;;;25.92;23.23;;;-0.70;99.90;;;;;;5031249;28;20453;-73
2024/01/18 03:47:35;;;;;;;25.40;22.90;;;-0.70;99.90;;;;;;5036865;28;20419;-74
2024/01/18 03:50:01;;;;;;;26.13;23.52;;;-0.70;99.90;;;;;;5022892;28;20890;-73
2024/01/18 03:52:30;;;;;;;25.58;22.98;;;-0.70;99.90;;;;;;5030843;28;20430;-73
2024/01/18 03:54:56;;;;;;;24.38;21.98;;;-0.70;99.90;;;;;;5029493;28;20909;-74
2024/01/18 03:57:23;;;;;;;24.90;22.55;;;-0.70;99.90;;;;;;5030510;28;20441;-73
2024/01/18 03:59:50;;;;;;;25.80;23.10;;;-0.70;99.90;;;;;;5029074;28;20429;-73
2024/01/18 04:02:16;;;;;;;25.75;23.27;;;-0.60;99.90;;;;;;5030665;28;20678;-74
2024/01/18 04:04:43;;;;;;;25.30;22.77;;;-0.60;99.90;;;;;;5030590;28;20415;-74
2024/01/18 04:07:10;;;;;;;26.73;23.95;;;-0.60;99.90;;;;;;5033346;28;20421;-73
2024/01/18 04:09:38;;;;;;;27.52;24.63;;;-0.60;99.90;;;;;;5032606;28;20419;-73
2024/01/18 04:12:06;;;;;;;27.27;24.48;;;-0.60;99.90;;;;;;5030682;28;20918;-73
2024/01/18 04:14:32;;;;;;;26.58;23.98;;;-0.60;99.90;;;;;;5030730;28;20461;-73
2024/01/18 04:16:59;;;;;;;27.42;24.73;;;-0.60;99.90;;;;;;5035517;28;20421;-73
2024/01/18 04:19:26;;;;;;;26.88;24.08;;;-0.60;99.90;;;;;;5029245;28;20437;-73
2024/01/18 04:21:53;;;;;;;27.73;24.95;;;-0.60;99.90;;;;;;5031003;28;20421;-74
2024/01/18 04:24:19;;;;;;;28.00;25.10;;;-0.60;99.90;;;;;;5029465;28;20439;-74
2024/01/18 04:26:49;;;;;;;26.90;24.20;;;-0.60;99.90;;;;;;5026650;28;20423;-73
2024/01/18 04:29:16;;;;;;;27.65;24.67;;;-0.60;99.90;;;;;;5031875;28;20797;-73
2024/01/18 04:31:42;;;;;;;27.33;24.52;;;-0.60;99.90;;;;;;5029205;28;20450;-74
2024/01/18 04:34:09;;;;;;;29.08;26.17;;;-0.70;99.90;;;;;;5030167;28;20438;-74
2024/01/18 04:36:36;;;;;;;28.73;25.83;;;-0.70;99.90;;;;;;5036412;28;21192;-74
2024/01/18 04:39:03;;;;;;;28.55;25.50;;;-0.70;99.90;;;;;;5029012;28;20415;-73
2024/01/18 04:41:29;;;;;;;30.13;27.08;;;-0.70;99.90;;;;;;5030143;28;20445;-72
2024/01/18 04:43:57;;;;;;;30.88;27.80;;;-0.70;99.90;;;;;;5029928;28;20415;-73
2024/01/18 04:46:25;;;;;;;31.27;28.13;;;-0.70;99.90;;;;;;5029187;28;20414;-72
2024/01/18 04:48:51;;;;;;;31.67;28.27;;;-0.70;99.90;;;;;;5030835;28;20419;-73
2024/01/18 04:51:19;;;;;;;29.60;26.70;;;-0.70;99.90;;;;;;5034739;28;20420;-75
2024/01/18 04:53:46;;;;;;;32.03;28.83;;;-0.70;99.90;;;;;;5028227;28;20790;-73
2024/01/18 04:56:13;;;;;;;30.52;26.80;;;-0.70;99.90;;;;;;5029013;28;20445;-74
2024/01/18 04:58:39;;;;;;;28.33;25.53;;;-0.70;99.90;;;;;;5028767;28;20415;-73
2024/01/18 05:01:07;;;;;;;29.27;26.38;;;-0.70;99.90;;;;;;5028891;28;20435;-73
2024/01/18 05:03:34;;;;;;;29.63;26.48;;;-0.70;99.90;;;;;;5029767;28;20418;-74
2024/01/18 05:06:01;;;;;;;28.67;25.88;;;-0.70;99.90;;;;;;5029094;28;20925;-74
2024/01/18 05:08:28;;;;;;;30.10;26.90;;;-0.70;99.90;;;;;;5028010;28;20415;-73
2024/01/18 05:10:54;;;;;;;31.25;28.05;;;-0.70;99.90;;;;;;5028319;28;20431;-73
2024/01/18 05:13:22;;;;;;;29.65;26.75;;;-0.70;99.90;;;;;;5033643;28;20442;-75
2024/01/18 05:15:48;;;;;;;28.90;25.90;;;-0.70;99.90;;;;;;5028567;28;20430;-75
2024/01/18 05:18:16;;;;;;;29.23;26.13;;;-0.70;99.90;;;;;;5028971;28;20416;-73
2024/01/18 05:20:43;;;;;;;29.73;26.83;;;-0.70;99.90;;;;;;5027473;28;20890;-73
2024/01/18 05:23:10;;;;;;;29.90;26.65;;;-0.70;99.90;;;;;;5028710;28;20403;-73
2024/01/18 05:25:37;;;;;;;28.92;25.95;;;-0.70;99.90;;;;;;5026708;28;20467;-73
2024/01/18 05:28:04;;;;;;;28.92;25.92;;;-0.70;99.90;;;;;;5024102;28;20422;-73
2024/01/18 05:30:30;;;;;;;29.50;26.48;;;-0.70;99.90;;;;;;5030485;28;20415;-73
2024/01/18 05:32:57;;;;;;;30.70;27.50;;;-0.70;99.90;;;;;;5028131;28;20435;-73
2024/01/18 05:35:25;;;;;;;29.80;26.70;;;-0.70;99.90;;;;;;5030506;28;20513;-73
2024/01/18 05:37:52;;;;;;;30.33;27.30;;;-0.80;99.90;;;;;;5028558;28;20403;-73
2024/01/18 05:40:21;;;;;;;32.10;28.57;;;-0.70;99.90;;;;;;5026720;28;20535;-73
2024/01/18 05:42:48;;;;;;;32.20;28.80;;;-0.70;99.90;;;;;;5028348;28;20430;-73
2024/01/18 05:45:15;;;;;;;31.67;28.37;;;-0.70;99.90;;;;;;5027733;28;20926;-73
2024/01/18 05:47:41;;;;;;;32.40;28.90;;;-0.70;99.90;;;;;;5029805;28;20778;-73
2024/01/18 05:50:09;;;;;;;32.85;29.35;;;-0.70;99.90;;;;;;5026748;28;20439;-73
2024/01/18 05:52:37;;;;;;;32.90;29.50;;;-0.70;99.90;;;;;;5027598;28;20525;-73
2024/01/18 05:55:05;;;;;;;32.88;29.77;;;-0.70;99.90;;;;;;5025616;28;20431;-73
2024/01/18 05:57:31;;;;;;;32.67;29.40;;;-0.70;99.90;;;;;;5028246;28;20427;-73
2024/01/18 05:59:58;;;;;;;32.75;29.45;;;-0.70;99.90;;;;;;5026552;28;20801;-73
2024/01/18 06:02:25;;;;;;;32.85;29.55;;;-0.70;99.90;;;;;;5031535;28;20448;-73
2024/01/18 06:04:51;;;;;;;33.90;30.33;;;-0.70;99.90;;;;;;5028418;28;20618;-73
2024/01/18 06:07:18;;;;;;;34.05;30.85;;;-0.70;99.90;;;;;;5026949;28;20825;-73
2024/01/18 06:09:46;;;;;;;32.95;29.58;;;-0.70;99.90;;;;;;5025542;28;20419;-73
2024/01/18 06:12:13;;;;;;;34.60;30.90;;;-0.70;99.90;;;;;;5028666;28;20421;-72
2024/01/18 06:14:40;;;;;;;32.95;29.65;;;-0.70;99.90;;;;;;5030455;28;20837;-76
2024/01/18 06:17:07;;;;;;;35.03;29.73;;;-0.70;99.90;;;;;;5023736;28;20424;-75
2024/01/18 06:19:34;;;;;;;31.77;28.67;;;-0.70;99.90;;;;;;5022971;28;20442;-74
2024/01/18 06:22:01;;;;;;;33.03;29.75;;;-0.70;99.90;;;;;;5025419;28;20860;-74
2024/01/18 06:24:28;;;;;;;31.30;28.00;;;-0.70;99.90;;;;;;5023031;28;20486;-74
2024/01/18 06:26:57;;;;;;;32.65;29.25;;;-0.70;99.90;;;;;;5025257;28;20473;-73
2024/01/18 06:29:26;;;;;;;31.27;28.10;;;-0.70;99.90;;;;;;5027184;28;20414;-73
2024/01/18 06:31:53;;;;;;;32.95;29.45;;;-0.70;99.90;;;;;;5026722;28;20423;-73
2024/01/18 06:34:19;;;;;;;32.70;29.20;;;-0.70;99.90;;;;;;5027986;28;20438;-74
2024/01/18 06:36:46;;;;;;;32.87;29.57;;;-0.70;99.90;;;;;;5025523;28;20442;-73
2024/01/18 06:39:13;;;;;;;33.75;30.27;;;-0.70;99.90;;;;;;5025321;28;20474;-74
2024/01/18 06:41:40;;;;;;;34.20;30.80;;;-0.70;99.90;;;;;;5026546;28;20433;-73
2024/01/18 06:44:08;;;;;;;34.67;31.10;;;-0.60;99.90;;;;;;5022882;28;20435;-73
2024/01/18 06:46:35;;;;;;;33.95;30.50;;;-0.60;99.90;;;;;;5023727;28;20435;-74
2024/01/18 06:49:02;;;;;;;33.95;30.55;;;-0.60;99.90;;;;;;5020115;28;20414;-74
2024/01/18 06:51:29;;;;;;;34.83;31.33;;;-0.60;99.90;;;;;;5032005;28;20411;-73
2024/01/18 06:53:56;;;;;;;33.20;29.90;;;-0.60;99.90;;;;;;5025094;28;20925;-73
2024/01/18 06:56:23;;;;;;;32.55;29.25;;;-0.60;99.90;;;;;;5031563;28;20805;-73
2024/01/18 06:58:49;;;;;;;32.45;29.15;;;-0.60;99.90;;;;;;5031197;28;20422;-73
2024/01/18 07:01:18;;;;;;;30.60;27.60;;;-0.60;99.90;;;;;;5032055;28;20414;-74
2024/01/18 07:03:44;;;;;;;30.40;27.20;;;-0.60;99.90;;;;;;5032526;28;20415;-74
2024/01/18 07:06:11;;;;;;;30.40;27.50;;;-0.60;99.90;;;;;;5025523;28;20955;-74
2024/01/18 07:08:38;;;;;;;30.73;27.70;;;-0.60;99.90;;;;;;5024659;28;20545;-72
2024/01/18 07:11:05;;;;;;;29.90;26.90;;;-0.60;99.90;;;;;;5018180;28;20426;-71
2024/01/18 07:13:32;;;;;;;28.42;25.55;;;-0.60;99.90;;;;;;5026491;28;20438;-74
2024/01/18 07:15:59;;;;;;;28.73;25.83;;;-0.60;99.90;;;;;;5025969;28;20442;-72
2024/01/18 07:18:28;;;;;;;30.00;26.80;;;-0.60;99.90;;;;;;5025269;28;20419;-72
2024/01/18 07:20:55;;;;;;;30.77;27.65;;;-0.60;99.90;;;;;;5025208;28;20439;-72
2024/01/18 07:23:21;;;;;;;30.70;27.70;;;-0.60;99.90;;;;;;5016587;28;20514;-72
2024/01/18 07:25:48;;;;;;;30.77;27.63;;;-0.60;99.90;;;;;;5025723;28;20453;-74
2024/01/18 07:28:15;;;;;;;31.08;27.98;;;-0.60;99.90;;;;;;5027360;28;20490;-73
2024/01/18 07:30:42;;;;;;;29.52;26.50;;;-0.60;99.90;;;;;;5024589;28;20419;-71
2024/01/18 07:33:09;;;;;;;31.05;27.75;;;-0.50;99.90;;;;;;5032578;28;21358;-72
2024/01/18 07:35:37;;;;;;;30.85;27.55;;;-0.50;99.90;;;;;;5030855;28;21067;-73
2024/01/18 07:38:04;;;;;;;32.20;28.90;;;-0.50;99.90;;;;;;5027988;28;21037;-73
2024/01/18 07:40:30;;;;;;;30.00;27.20;;;-0.50;99.90;;;;;;5026287;28;20423;-73
2024/01/18 07:42:57;;;;;;;30.60;27.60;;;-0.50;99.90;;;;;;5026241;28;20414;-71
2024/01/18 07:45:24;;;;;;;29.60;26.70;;;-0.60;99.90;;;;;;5025880;28;20423;-71
2024/01/18 07:47:51;;;;;;;28.50;25.80;;;-0.60;99.90;;;;;;5026346;28;20411;-72
2024/01/18 07:50:17;;;;;;;30.50;27.40;;;-0.60;99.90;;;;;;5025280;28;20410;-72
2024/01/18 07:52:45;;;;;;;29.65;26.73;;;-0.70;99.90;;;;;;5022746;28;20802;-72
2024/01/18 07:55:12;;;;;;;29.30;26.10;;;-0.60;99.90;;;;;;5025535;28;20435;-73
2024/01/18 07:57:39;;;;;;;29.30;25.55;;;-0.70;99.90;;;;;;5022616;28;20422;-72
2024/01/18 08:00:08;;;;;;;29.00;26.10;;;-0.70;99.90;;;;;;5019787;28;20456;-72
2024/01/18 08:02:35;;;;;;;30.75;27.55;;;-0.70;99.90;;;;;;5017843;28;20430;-72
2024/01/18 08:05:01;;;;;;;29.70;26.70;;;-0.70;99.90;;;;;;5023270;28;20431;-73
2024/01/18 08:07:28;;;;;;;30.57;27.43;;;-0.70;99.90;;;;;;5012141;28;20986;-73
2024/01/18 08:09:56;;;;;;;29.08;26.15;;;-0.70;99.90;;;;;;5020215;28;20435;-72
2024/01/18 08:12:23;;;;;;;29.00;26.00;;;-0.70;99.90;;;;;;5025203;28;20427;-73
2024/01/18 08:14:50;;;;;;;30.30;27.10;;;-0.70;99.90;;;;;;5015828;28;20433;-73
2024/01/18 08:17:17;;;;;;;30.75;27.55;;;-0.70;99.90;;;;;;5016399;28;20442;-72
2024/01/18 08:19:44;;;;;;;32.28;28.88;;;-0.70;99.90;;;;;;5022304;28;20501;-72
2024/01/18 08:22:11;;;;;;;31.20;28.00;;;-0.70;99.90;;;;;;5019504;28;20434;-72
2024/01/18 08:24:39;;;;;;;29.90;26.90;;;-0.70;99.90;;;;;;5024132;28;20909;-73
2024/01/18 08:27:07;;;;;;;32.35;29.05;;;-0.80;99.90;;;;;;5022531;28;20986;-72
2024/01/18 08:29:33;;;;;;;30.77;27.48;;;-0.80;99.90;;;;;;5022857;28;20442;-71
2024/01/18 08:32:01;;;;;;;32.60;29.30;;;-0.80;99.90;;;;;;5025169;28;20466;-72
2024/01/18 08:34:28;;;;;;;32.45;29.02;;;-0.90;99.90;;;;;;5026158;28;20427;-72
2024/01/18 08:36:55;;;;;;;31.95;28.60;;;-0.90;99.90;;;;;;5024993;28;20446;-72
2024/01/18 08:39:21;;;;;;;31.42;28.27;;;-1.00;99.90;;;;;;5020822;28;20469;-71
2024/01/18 08:41:48;;;;;;;30.98;27.92;;;-1.00;99.90;;;;;;5027066;28;20438;-71
2024/01/18 08:44:16;;;;;;;33.05;29.55;;;-1.00;99.90;;;;;;5026925;28;20470;-71
2024/01/18 08:46:43;;;;;;;31.33;27.93;;;-1.00;99.90;;;;;;5028709;28;20419;-72
2024/01/18 08:49:10;;;;;;;32.22;28.83;;;-1.10;99.90;;;;;;5024258;28;20484;-71
2024/01/18 08:51:36;;;;;;;33.38;28.50;;;-1.10;99.90;;;;;;5027516;28;20453;-71
2024/01/18 08:54:03;;;;;;;31.95;28.50;;;-1.10;99.90;;;;;;5025069;28;20442;-71
2024/01/18 08:56:30;;;;;;;34.65;30.55;;;-1.20;99.90;;;;;;5026283;22;20460;-62
2024/01/18 08:58:56;;;;;;;33.65;29.98;;;-1.20;99.90;;;;;;5000038;28;20914;-62
2024/01/18 09:01:24;;;;;;;33.42;29.92;;;-1.20;99.90;;;;;;4992718;28;20440;-62
2024/01/18 09:03:51;;;;;;;34.33;30.63;;;-1.20;99.90;;;;;;5003201;28;20490;-62
2024/01/18 09:06:18;;;;;;;35.42;31.70;;;-1.20;99.90;;;;;;5002689;28;20459;-64
2024/01/18 09:08:45;;;;;;;34.67;30.98;;;-1.10;99.90;;;;;;5005794;28;21237;-62
2024/01/18 09:11:13;;;;;;;34.65;31.02;;;-1.10;99.90;;;;;;5001910;28;20447;-65
2024/01/18 09:13:40;;;;;;;35.00;31.40;;;-0.90;99.90;;;;;;4999862;28;20625;-64
2024/01/18 09:16:07;;;;;;;34.63;31.13;;;-0.80;99.90;;;;;;5000404;28;20431;-63
2024/01/18 09:18:35;;;;;;;33.65;30.25;;;-0.50;99.90;;;;;;5000529;28;20478;-64
2024/01/18 09:21:02;;;;;;;33.58;30.17;;;-0.30;99.90;;;;;;4999788;28;20440;-64
2024/01/18 09:23:29;;;;;;;32.25;29.15;;;-0.20;99.90;;;;;;4994910;28;20447;-62
2024/01/18 09:25:55;;;;;;;30.73;27.87;;;-0.20;99.90;;;;;;4994558;28;20444;-64
2024/01/18 09:28:22;;;;;;;31.05;28.15;;;-0.20;99.90;;;;;;5000898;28;20442;-64
2024/01/18 09:30:49;;;;;;;31.00;27.83;;;-0.20;99.90;;;;;;4997969;28;20524;-64
2024/01/18 09:33:16;;;;;;;31.57;28.47;;;-0.10;99.90;;;;;;5002830;28;20439;-65
2024/01/18 09:35:45;;;;;;;29.50;26.70;;;-0.10;99.90;;;;;;5009850;28;20601;-64
2024/01/18 09:38:11;;;;;;;30.87;27.67;;;0.00;99.90;;;;;;5011045;28;20471;-65
2024/01/18 09:40:39;;;;;;;31.23;28.13;;;0.10;99.90;;;;;;5007144;28;20440;-64
2024/01/18 09:43:09;;;;;;;29.27;26.48;;;0.20;99.90;;;;;;5011625;28;20477;-64
2024/01/18 09:45:39;;;;;;;29.77;26.88;;;0.20;99.90;;;;;;5017006;28;20432;-64
2024/01/18 09:48:07;;;;;;;30.65;27.58;;;0.10;99.90;;;;;;5018894;28;20935;-64
2024/01/18 09:50:36;;;;;;;30.92;28.00;;;0.10;99.90;;;;;;5010951;28;20532;-64
2024/01/18 09:53:05;;;;;;;31.73;28.63;;;0.20;99.90;;;;;;5006667;28;20518;-65
2024/01/18 09:55:32;;;;;;;31.92;28.75;;;0.20;99.90;;;;;;5012789;28;20536;-64
2024/01/18 09:58:02;;;;;;;31.38;28.38;;;0.30;99.90;;;;;;5013809;28;20527;-64
2024/01/18 10:00:31;;;;;;;32.28;29.08;;;0.40;99.90;;;;;;5013259;28;20436;-65
2024/01/18 10:02:58;;;;;;;32.60;29.20;;;0.60;99.90;;;;;;5012792;28;20448;-61
2024/01/18 10:05:26;;;;;;;31.25;27.98;;;0.60;99.90;;;;;;5001292;28;20443;-64
2024/01/18 10:07:53;;;;;;;31.85;28.75;;;0.70;99.90;;;;;;5012098;28;20489;-63
2024/01/18 10:10:21;;;;;;;32.35;28.95;;;0.70;99.90;;;;;;5009891;28;20475;-63
2024/01/18 10:12:48;;;;;;;31.35;28.20;;;0.80;99.90;;;;;;5008546;28;20489;-64
2024/01/18 10:15:32;;;;;;;30.63;27.75;;;0.80;99.90;;;;;;5001972;28;20433;-64
2024/01/18 10:17:59;;;;;;;30.85;28.05;;;0.80;99.90;;;;;;5004844;28;20420;-65
2024/01/18 10:20:26;;;;;;;30.50;27.60;;;0.80;99.90;;;;;;5008594;28;20427;-64
2024/01/18 10:22:54;;;;;;;31.27;28.10;;;0.90;99.90;;;;;;5016593;28;20428;-64
2024/01/18 10:25:25;;;;;;;33.05;29.67;;;0.90;99.90;;;;;;5009952;28;20443;-64
2024/01/18 10:27:53;;;;;;;31.95;28.75;;;0.90;99.90;;;;;;5011060;28;20432;-63
2024/01/18 10:30:20;;;;;;;31.70;28.50;;;0.90;99.90;;;;;;5005396;28;20503;-64
2024/01/18 10:32:47;;;;;;;31.20;28.20;;;0.90;99.90;;;;;;4998623;28;20440;-64
2024/01/18 10:35:19;;;;;;;32.22;28.83;;;0.90;99.90;;;;;;5001896;28;20432;-62
2024/01/18 10:37:46;;;;;;;31.60;28.50;;;0.90;99.90;;;;;;5003436;28;20819;-65
2024/01/18 10:40:18;;;;;;;33.30;29.88;;;1.00;99.90;;;;;;4998887;28;20440;-64
2024/01/18 10:42:47;;;;;;;32.05;28.83;;;1.10;99.90;;;;;;5001637;28;20545;-65
2024/01/18 10:45:14;;;;;;;31.55;28.45;;;1.20;99.90;;;;;;5006635;28;20760;-65
2024/01/18 10:47:42;;;;;;;31.40;28.33;;;1.20;99.90;;;;;;5002858;28;20416;-68
2024/01/18 10:50:10;;;;;;;31.90;28.70;;;1.10;99.90;;;;;;4999082;28;20444;-66
2024/01/18 10:52:38;;;;;;;33.28;29.75;;;1.10;99.90;;;;;;5000392;28;20579;-66
2024/01/18 10:55:08;;;;;;;34.13;30.73;;;1.00;99.90;;;;;;4998646;28;20595;-68
2024/01/18 10:57:35;;;;;;;32.90;29.60;;;1.00;99.90;;;;;;4996267;28;20426;-66
2024/01/18 11:00:07;;;;;;;33.78;30.42;;;1.10;99.90;;;;;;4996496;28;20428;-65
2024/01/18 11:02:39;;;;;;;33.15;29.75;;;1.00;99.90;;;;;;4996036;28;20645;-66
2024/01/18 11:05:09;;;;;;;33.15;29.38;;;1.00;99.90;;;;;;4995970;28;20445;-66
2024/01/18 11:07:37;;;;;;;31.40;28.42;;;1.20;99.90;;;;;;4997998;28;20436;-65
2024/01/18 11:10:07;;;;;;;45.00;36.72;;;1.20;99.90;;;;;;5000160;28;20812;-65
2024/01/18 11:12:35;;;;;;;33.78;30.42;;;1.20;99.90;;;;;;4999292;28;20471;-65
2024/01/18 11:15:04;;;;;;;32.33;29.25;;;1.30;99.90;;;;;;4998562;28;20519;-65
2024/01/18 11:17:31;;;;;;;30.90;27.98;;;1.40;99.90;;;;;;4999947;28;20871;-65
2024/01/18 11:20:01;;;;;;;32.33;28.95;;;1.50;99.90;;;;;;4999062;28;20495;-67
2024/01/18 11:22:30;;;;;;;29.98;27.17;;;1.60;99.90;;;;;;4994207;28;20433;-66
2024/01/18 11:25:06;;;;;;;29.30;26.30;;;1.60;99.90;;;;;;4991394;28;20546;-66
2024/01/18 11:27:37;;;;;;;28.30;25.40;;;1.70;99.90;;;;;;4996869;28;20517;-67
2024/01/18 11:30:07;;;;;;;28.13;25.33;;;1.50;99.90;;;;;;4996182;28;20413;-67
2024/01/18 11:32:34;;;;;;;27.73;24.92;;;1.40;99.90;;;;;;4991101;28;20419;-67
2024/01/18 11:35:09;;;;;;;28.67;25.67;;;1.40;99.90;;;;;;4993350;28;20486;-67
2024/01/18 11:37:36;;;;;;;26.95;24.45;;;1.30;99.90;;;;;;4995122;28;20436;-66
2024/01/18 11:40:05;;;;;;;28.67;25.70;;;1.30;99.90;;;;;;5000425;28;20788;-68
2024/01/18 11:42:33;;;;;;;26.30;23.77;;;1.40;99.90;;;;;;5003204;28;20408;-66
2024/01/18 11:45:01;;;;;;;26.70;24.00;;;1.50;99.90;;;;;;5003175;28;20420;-68
2024/01/18 11:47:33;;;;;;;27.10;24.30;;;1.50;99.90;;;;;;4999195;28;20425;-67
2024/01/18 11:50:05;;;;;;;25.58;23.17;;;1.60;99.90;;;;;;5000037;28;20476;-67
2024/01/18 11:52:33;;;;;;;25.20;22.75;;;1.70;99.90;;;;;;5002005;28;20424;-67
2024/01/18 11:55:01;;;;;;;27.90;25.00;;;1.80;99.90;;;;;;5002848;28;20752;-67
2024/01/18 11:57:29;;;;;;;27.67;24.88;;;1.90;99.90;;;;;;5008517;28;20420;-67
2024/01/18 11:59:55;;;;;;;27.65;24.85;;;2.00;99.90;;;;;;4999349;28;20552;-66
2024/01/18 12:02:22;;;;;;;25.88;23.30;;;2.20;99.90;;;;;;5007800;28;20420;-67
2024/01/18 12:04:51;;;;;;;26.92;24.23;;;2.20;99.90;;;;;;5004700;28;20432;-66
2024/01/18 12:07:19;;;;;;;26.45;23.88;;;2.10;99.90;;;;;;5005774;28;20443;-66
2024/01/18 12:09:46;;;;;;;27.20;24.50;;;2.10;99.90;;;;;;5004682;28;20424;-66
2024/01/18 12:12:15;;;;;;;26.38;23.85;;;2.20;99.90;;;;;;5001620;28;20417;-66
2024/01/18 12:14:43;;;;;;;26.20;23.42;;;2.30;99.90;;;;;;4996232;28;20421;-66
2024/01/18 12:17:11;;;;;;;25.67;23.15;;;2.40;99.90;;;;;;5001430;28;20441;-66
2024/01/18 12:19:40;;;;;;;26.10;23.70;;;2.60;99.90;;;;;;4992765;28;20450;-66
2024/01/18 12:22:09;;;;;;;26.40;23.90;;;2.70;99.90;;;;;;4989037;28;20444;-66
2024/01/18 12:24:36;;;;;;;27.15;24.55;;;2.70;99.90;;;;;;4997806;28;20431;-66
2024/01/18 12:27:04;;;;;;;25.80;23.27;;;2.80;99.90;;;;;;4990570;28;20422;-66
2024/01/18 12:29:32;;;;;;;25.43;22.93;;;3.00;99.90;;;;;;4998142;28;20934;-66